Time;durP1;ratioP1;P1;durP2;ratioP2;P2;SDS_P1;SDS_P2;PMS_P1;PMS_P2;Temp;Humidity;BMP_temperature;BMP_pressure;BME280_temperature;BME280_humidity;BME280_pressure;Samples;Min_cycle;Max_cycle;Signal;HPM_P1;HPM_P2
2022/11/14 07:01:14;;;;;;;33.50;22.23;;;6.10;99.90;;;;;;5301045;23;20045;-82
2022/11/14 07:03:42;;;;;;;34.05;23.77;;;6.20;99.90;;;;;;4893936;29;20057;-81
2022/11/14 07:06:10;;;;;;;32.92;21.30;;;6.20;99.90;;;;;;4899871;29;20068;-81
2022/11/14 07:08:37;;;;;;;29.00;20.25;;;6.20;99.90;;;;;;4902252;29;20586;-82
2022/11/14 07:11:09;;;;;;;27.10;18.33;;;6.30;99.90;;;;;;4899988;29;20064;-82
2022/11/14 07:13:37;;;;;;;26.15;18.77;;;6.30;99.90;;;;;;4896347;29;20056;-82
2022/11/14 07:16:04;;;;;;;26.33;18.52;;;6.30;99.90;;;;;;4899355;29;20091;-81
2022/11/14 07:18:32;;;;;;;29.08;20.35;;;6.40;99.90;;;;;;4904564;29;20072;-82
2022/11/14 07:21:05;;;;;;;25.33;18.40;;;6.40;99.90;;;;;;4892855;29;20053;-81
2022/11/14 07:23:33;;;;;;;27.33;19.00;;;6.40;99.90;;;;;;4896438;29;20055;-78
2022/11/14 07:26:08;;;;;;;25.38;19.02;;;6.40;99.90;;;;;;4907058;29;20076;-78
2022/11/14 07:28:36;;;;;;;30.20;20.63;;;6.50;99.90;;;;;;4901087;29;20104;-79
2022/11/14 07:31:04;;;;;;;30.23;19.95;;;6.50;99.90;;;;;;4899727;29;20060;-78
2022/11/14 07:33:31;;;;;;;31.73;21.00;;;6.50;99.90;;;;;;4903064;29;20120;-80
2022/11/14 07:35:58;;;;;;;31.38;24.67;;;6.60;99.90;;;;;;4911472;29;20494;-79
2022/11/14 07:38:25;;;;;;;33.05;25.10;;;6.60;99.90;;;;;;4902671;29;20053;-79
2022/11/14 07:40:59;;;;;;;33.45;24.13;;;6.60;99.90;;;;;;4902636;29;20040;-80
2022/11/14 07:43:26;;;;;;;29.35;21.65;;;6.70;99.90;;;;;;4904544;29;20052;-80
2022/11/14 07:45:57;;;;;;;29.27;20.17;;;6.70;99.90;;;;;;4901640;29;20072;-79
2022/11/14 07:48:24;;;;;;;26.20;20.75;;;6.70;99.90;;;;;;4905723;29;20059;-79
2022/11/14 07:50:51;;;;;;;26.83;18.98;;;6.70;99.90;;;;;;4900260;29;20130;-80
2022/11/14 07:53:18;;;;;;;30.52;19.75;;;6.80;99.90;;;;;;4897700;29;20700;-81
2022/11/14 07:55:44;;;;;;;24.95;18.15;;;6.80;99.90;;;;;;4901460;29;20536;-82
2022/11/14 07:58:12;;;;;;;24.98;19.00;;;6.80;99.90;;;;;;4901623;29;20425;-81
2022/11/14 08:00:39;;;;;;;28.20;19.67;;;6.80;99.90;;;;;;4898723;29;20044;-81
2022/11/14 08:03:07;;;;;;;26.67;18.40;;;6.90;99.90;;;;;;4899085;29;20041;-81
2022/11/14 08:05:34;;;;;;;24.45;16.95;;;6.80;99.90;;;;;;4893427;29;20049;-82
2022/11/14 08:08:00;;;;;;;30.48;19.83;;;6.90;99.90;;;;;;4894263;29;20048;-80
2022/11/14 08:10:27;;;;;;;24.77;17.88;;;7.00;99.90;;;;;;4895736;29;20041;-82
2022/11/14 08:13:02;;;;;;;32.97;21.52;;;7.00;99.90;;;;;;4898234;29;20049;-81
2022/11/14 08:15:48;;;;;;;34.67;22.70;;;7.00;99.90;;;;;;4893756;29;20044;-81
2022/11/14 08:18:15;;;;;;;50.78;32.88;;;7.10;99.90;;;;;;4896768;29;20309;-81
2022/11/14 08:20:42;;;;;;;42.00;28.42;;;7.20;99.90;;;;;;4895238;29;20052;-82
2022/11/14 08:23:10;;;;;;;44.95;29.63;;;7.20;99.90;;;;;;4895734;29;20049;-82
2022/11/14 08:25:36;;;;;;;39.45;25.15;;;7.30;99.90;;;;;;4895099;29;20052;-82
2022/11/14 08:28:03;;;;;;;25.10;16.17;;;7.40;99.90;;;;;;4901899;29;20534;-82
2022/11/14 08:30:30;;;;;;;30.90;21.40;;;7.40;99.90;;;;;;4895274;29;20514;-82
2022/11/14 08:33:01;;;;;;;22.50;16.30;;;7.50;99.90;;;;;;4895176;29;20053;-81
2022/11/14 08:35:28;;;;;;;25.00;16.45;;;7.60;99.90;;;;;;4895027;29;20063;-80
2022/11/14 08:37:55;;;;;;;19.15;15.82;;;7.70;99.90;;;;;;4901864;29;20510;-81
2022/11/14 08:40:21;;;;;;;23.13;17.23;;;7.80;99.90;;;;;;4894621;29;20100;-82
2022/11/14 08:42:48;;;;;;;21.38;15.20;;;7.80;99.90;;;;;;4902096;29;20059;-80
2022/11/14 08:45:15;;;;;;;13.65;11.30;;;7.90;99.90;;;;;;4894003;29;20053;-82
2022/11/14 08:47:41;;;;;;;15.73;11.02;;;8.00;99.90;;;;;;4896137;29;20060;-82
2022/11/14 08:50:08;;;;;;;16.65;10.32;;;8.10;99.90;;;;;;4895712;29;20053;-82
2022/11/14 08:52:35;;;;;;;17.15;11.65;;;8.20;99.90;;;;;;4895648;29;20057;-83
2022/11/14 08:55:02;;;;;;;34.78;28.85;;;8.30;99.90;;;;;;4893977;29;20056;-81
2022/11/14 08:57:29;;;;;;;45.60;40.75;;;8.30;99.90;;;;;;4901838;29;20057;-82
2022/11/14 08:59:55;;;;;;;50.50;44.88;;;8.40;99.90;;;;;;4894751;29;20049;-82
2022/11/14 09:02:22;;;;;;;34.17;27.60;;;8.40;99.90;;;;;;4892395;29;20052;-82
2022/11/14 09:04:48;;;;;;;34.28;30.77;;;8.50;99.90;;;;;;4896022;29;20064;-81
2022/11/14 09:07:15;;;;;;;42.20;37.65;;;8.60;99.90;;;;;;4895194;29;20076;-82
2022/11/14 09:09:42;;;;;;;27.20;22.60;;;8.60;99.90;;;;;;4895255;29;20083;-82
2022/11/14 09:12:09;;;;;;;20.60;14.85;;;8.70;99.90;;;;;;4894629;29;20108;-82
2022/11/14 09:14:36;;;;;;;23.98;20.23;;;8.70;99.90;;;;;;4895294;29;20063;-81
2022/11/14 09:17:02;;;;;;;30.23;25.42;;;8.80;99.90;;;;;;4895654;29;20572;-82
2022/11/14 09:19:31;;;;;;;21.02;18.77;;;8.90;99.90;;;;;;4902070;29;20117;-82
2022/11/14 09:21:58;;;;;;;14.07;10.25;;;8.90;99.90;;;;;;4894433;29;20104;-82
2022/11/14 09:24:25;;;;;;;6.80;4.22;;;9.00;99.90;;;;;;4896208;29;20113;-83
2022/11/14 09:26:51;;;;;;;7.30;4.20;;;9.10;99.90;;;;;;4895020;29;20059;-82
2022/11/14 09:29:22;;;;;;;13.32;11.93;;;9.20;99.90;;;;;;4903124;29;20061;-80
2022/11/14 09:31:50;;;;;;;17.08;14.30;;;9.30;99.90;;;;;;4894115;29;20056;-81
2022/11/14 09:34:17;;;;;;;16.20;12.88;;;9.40;99.90;;;;;;4896909;29;20057;-82
2022/11/14 09:36:45;;;;;;;17.05;12.57;;;9.40;99.90;;;;;;4895485;29;20067;-82
2022/11/14 09:39:12;;;;;;;18.77;12.02;;;9.40;99.90;;;;;;4900620;29;20052;-81
2022/11/14 09:42:09;;;;;;;7.78;4.80;;;9.40;99.90;;;;;;4900619;29;20049;-82
2022/11/14 09:44:51;;;;;;;5.80;2.90;;;9.50;99.90;;;;;;4911917;29;20053;-81
2022/11/14 09:47:26;;;;;;;4.03;2.55;;;9.80;99.90;;;;;;4903915;29;20044;-80
2022/11/14 09:50:05;;;;;;;4.20;2.40;;;9.90;99.90;;;;;;4898000;29;20502;-78
2022/11/14 09:52:38;;;;;;;3.80;2.22;;;10.10;99.90;;;;;;4900624;29;20049;-83
2022/11/14 09:55:17;;;;;;;4.75;1.90;;;10.30;99.90;;;;;;4902258;29;20059;-82
2022/11/14 09:57:44;;;;;;;3.70;2.15;;;10.50;99.90;;;;;;4897846;29;20112;-82
2022/11/14 10:00:16;;;;;;;4.10;1.85;;;10.50;99.90;;;;;;4898428;29;20049;-82
2022/11/14 10:02:51;;;;;;;4.05;2.08;;;10.70;99.90;;;;;;4896195;29;20120;-79
2022/11/14 10:05:48;;;;;;;3.78;2.13;;;10.80;99.90;;;;;;4903951;29;20081;-81
2022/11/14 10:08:30;;;;;;;4.90;2.00;;;10.90;99.90;;;;;;4894029;29;20165;-81
2022/11/14 10:11:05;;;;;;;5.82;2.03;;;11.00;99.90;;;;;;4896591;29;20076;-81
2022/11/14 10:14:09;;;;;;;5.85;2.00;;;11.10;99.90;;;;;;4906693;29;20159;-82
2022/11/14 10:16:51;;;;;;;3.83;2.40;;;11.10;99.90;;;;;;4895979;29;20053;-82
2022/11/14 10:19:26;;;;;;;8.23;2.60;;;11.20;99.90;;;;;;4899929;29;20410;-82
2022/11/14 10:21:56;;;;;;;6.72;2.05;;;11.20;99.90;;;;;;4896552;29;20529;-82
2022/11/14 10:24:39;;;;;;;4.75;2.13;;;11.20;99.90;;;;;;4896544;29;20049;-81
2022/11/14 10:27:39;;;;;;;4.10;2.47;;;11.30;99.90;;;;;;4912573;29;20045;-83
2022/11/14 10:30:15;;;;;;;5.95;1.83;;;11.30;99.90;;;;;;4898580;29;20140;-83
2022/11/14 10:32:56;;;;;;;3.60;2.35;;;11.30;99.90;;;;;;4888637;29;20063;-83
2022/11/14 10:35:39;;;;;;;4.20;2.17;;;11.30;99.90;;;;;;4888322;29;20112;-83
2022/11/14 10:38:06;;;;;;;4.43;2.28;;;11.30;99.90;;;;;;4887651;29;20059;-83
2022/11/14 10:40:44;;;;;;;6.82;2.55;;;11.30;99.90;;;;;;4896999;29;20052;-83
2022/11/14 10:43:32;;;;;;;8.95;2.15;;;11.30;99.90;;;;;;4897470;29;20052;-82
2022/11/14 10:46:06;;;;;;;3.95;1.95;;;11.30;99.90;;;;;;4897501;29;20048;-82
2022/11/14 10:48:40;;;;;;;4.85;1.80;;;11.30;99.90;;;;;;4900413;29;20131;-81
2022/11/14 10:51:23;;;;;;;5.43;2.20;;;11.40;99.90;;;;;;4896659;29;20059;-81
2022/11/14 10:54:08;;;;;;;3.85;1.92;;;11.40;99.90;;;;;;4900199;29;20051;-82
2022/11/14 10:56:46;;;;;;;2.80;1.58;;;11.60;99.90;;;;;;4898475;29;20051;-83
2022/11/14 10:59:13;;;;;;;4.60;2.17;;;11.60;99.90;;;;;;4911520;29;20053;-81
2022/11/14 11:01:54;;;;;;;8.25;2.60;;;11.70;99.90;;;;;;4896045;29;20059;-81
2022/11/14 11:04:31;;;;;;;3.80;2.03;;;11.70;99.90;;;;;;4901492;29;20750;-83
2022/11/14 11:07:07;;;;;;;5.28;2.53;;;11.70;99.90;;;;;;4891799;29;20045;-81
2022/11/14 11:12:44;;;;;;;5.05;1.70;;;12.00;99.90;;;;;;4901992;29;20099;-81
2022/11/14 11:15:37;;;;;;;6.50;2.00;;;12.00;99.90;;;;;;4898123;29;20420;-84
2022/11/14 11:18:22;;;;;;;5.45;2.53;;;12.10;99.90;;;;;;4902411;29;20063;-83
2022/11/14 11:21:13;;;;;;;6.03;1.95;;;12.10;99.90;;;;;;4905225;29;20045;-81
2022/11/14 11:23:48;;;;;;;4.75;2.05;;;12.10;99.90;;;;;;4904622;29;20455;-84
2022/11/14 11:26:24;;;;;;;4.80;1.88;;;12.10;99.90;;;;;;4896416;29;20052;-83
2022/11/14 11:29:13;;;;;;;4.75;2.20;;;12.20;99.90;;;;;;4893920;29;20128;-81
2022/11/14 11:31:56;;;;;;;4.27;1.87;;;12.30;99.90;;;;;;4897309;29;20052;-83
2022/11/14 11:34:26;;;;;;;7.10;2.15;;;12.20;99.90;;;;;;4900443;29;20640;-82
2022/11/14 11:37:13;;;;;;;4.73;2.10;;;12.20;99.90;;;;;;4899996;29;20127;-82
2022/11/14 11:40:02;;;;;;;4.40;2.15;;;12.20;99.90;;;;;;4897022;29;20056;-80
2022/11/14 11:42:49;;;;;;;3.20;2.28;;;12.20;99.90;;;;;;4899324;29;20051;-82
2022/11/14 11:45:36;;;;;;;5.50;1.90;;;12.20;99.90;;;;;;4893870;29;20045;-82
2022/11/14 11:48:08;;;;;;;5.53;1.88;;;12.30;99.90;;;;;;4895237;29;20474;-80
2022/11/14 11:50:35;;;;;;;4.40;1.63;;;12.40;99.90;;;;;;4893889;29;20052;-81
2022/11/14 11:53:23;;;;;;;3.30;2.13;;;12.30;99.90;;;;;;4892138;29;20053;-82
2022/11/14 11:55:55;;;;;;;5.10;2.45;;;12.40;99.90;;;;;;4901925;29;20091;-80
2022/11/14 11:58:25;;;;;;;5.30;2.45;;;12.40;99.90;;;;;;4895858;29;20136;-80
2022/11/14 12:00:56;;;;;;;2.53;2.00;;;12.50;99.90;;;;;;4898340;29;20068;-81
2022/11/14 12:03:25;;;;;;;2.60;1.77;;;12.60;99.90;;;;;;4900529;29;20045;-79
2022/11/14 12:06:13;;;;;;;5.23;1.80;;;12.60;99.90;;;;;;4898453;29;20546;-83
2022/11/14 12:09:14;;;;;;;4.43;2.47;;;12.50;99.90;;;;;;4896106;29;20285;-80
2022/11/14 12:11:47;;;;;;;3.72;1.98;;;12.60;99.90;;;;;;4905401;29;20133;-83
2022/11/14 12:14:54;;;;;;;6.38;2.40;;;12.60;99.90;;;;;;4894184;29;20088;-81
2022/11/14 12:18:09;;;;;;;3.13;1.77;;;12.60;99.90;;;;;;4898022;29;20470;-78
2022/11/14 12:20:51;;;;;;;8.15;2.45;;;12.60;99.90;;;;;;4895308;29;20059;-84
2022/11/14 12:23:36;;;;;;;4.25;2.00;;;12.70;99.90;;;;;;4896289;29;20156;-82
2022/11/14 12:26:27;;;;;;;7.03;2.08;;;12.70;99.90;;;;;;4895787;29;20507;-81
2022/11/14 12:29:05;;;;;;;4.63;1.95;;;12.80;99.90;;;;;;4897968;29;20131;-81
2022/11/14 12:31:35;;;;;;;5.15;1.75;;;12.90;99.90;;;;;;4899165;29;20048;-80
2022/11/14 12:34:14;;;;;;;6.00;2.05;;;13.10;99.90;;;;;;4896863;29;20059;-81
2022/11/14 12:36:44;;;;;;;5.83;1.47;;;13.20;99.90;;;;;;4897090;29;20054;-81
2022/11/14 12:39:24;;;;;;;3.03;1.67;;;13.30;99.90;;;;;;4902014;29;20284;-80
2022/11/14 12:42:00;;;;;;;3.50;1.52;;;13.30;99.90;;;;;;4903004;29;20521;-80
2022/11/14 12:44:27;;;;;;;2.78;1.67;;;13.50;99.90;;;;;;4894412;29;20055;-82
2022/11/14 12:47:06;;;;;;;2.85;1.50;;;13.50;99.90;;;;;;4896059;29;20044;-83
2022/11/14 12:49:37;;;;;;;5.53;1.88;;;13.60;99.90;;;;;;4900107;29;20116;-82
2022/11/14 12:52:24;;;;;;;12.20;2.42;;;13.50;99.90;;;;;;4894304;29;20053;-82
2022/11/14 12:54:50;;;;;;;4.72;2.33;;;13.60;99.90;;;;;;4896882;29;20052;-81
2022/11/14 12:58:01;;;;;;;3.67;1.85;;;13.60;99.90;;;;;;4901894;29;20091;-82
2022/11/14 13:00:21;;;;;;;8.48;2.20;;;13.70;99.90;;;;;;4893789;29;20048;-82
2022/11/14 13:03:20;;;;;;;5.00;2.10;;;13.70;99.90;;;;;;4894993;29;20516;-83
2022/11/14 13:06:16;;;;;;;7.45;2.55;;;13.70;99.90;;;;;;4893334;29;20040;-83
2022/11/14 13:09:15;;;;;;;3.47;1.65;;;13.70;99.90;;;;;;4895605;29;20057;-82
2022/11/14 13:23:26;;;;;;;3.05;2.00;;;13.50;99.90;;;;;;4897238;29;20052;-79
2022/11/14 13:26:12;;;;;;;3.85;2.13;;;13.50;99.90;;;;;;4900034;29;20073;-81
2022/11/14 13:28:48;;;;;;;5.20;1.92;;;13.40;99.90;;;;;;4898150;29;20075;-81
2022/11/14 13:31:15;;;;;;;4.57;2.00;;;13.30;99.90;;;;;;4900451;29;20061;-81
2022/11/14 13:33:44;;;;;;;3.88;1.90;;;13.20;99.90;;;;;;4904018;29;20053;-81
2022/11/14 13:36:44;;;;;;;6.13;2.20;;;13.10;99.90;;;;;;4896449;29;20140;-81
2022/11/14 13:39:22;;;;;;;4.45;2.00;;;13.10;99.90;;;;;;4900542;29;20049;-78
2022/11/14 13:42:08;;;;;;;6.88;2.10;;;13.00;99.90;;;;;;4899130;29;20049;-82
2022/11/14 13:44:40;;;;;;;4.60;1.75;;;12.90;99.90;;;;;;4906524;29;20067;-82
2022/11/14 13:47:07;;;;;;;4.70;2.08;;;12.90;99.90;;;;;;4896749;29;20080;-81
2022/11/14 13:49:57;;;;;;;5.00;1.63;;;12.80;99.90;;;;;;4899445;29;20064;-81
2022/11/14 13:52:26;;;;;;;;;;;12.80;99.90;;;;;;4914369;29;20053;-84
2022/11/14 13:54:53;;;;;;;2.60;1.73;;;12.70;99.90;;;;;;4922957;29;19959;-85
2022/11/14 13:57:35;;;;;;;6.85;2.45;;;12.70;99.90;;;;;;4924980;29;20100;-84
2022/11/14 14:00:13;;;;;;;3.72;1.98;;;12.60;99.90;;;;;;4914385;29;20064;-84
2022/11/14 14:03:01;;;;;;;3.75;1.77;;;12.60;99.90;;;;;;4907297;29;20077;-81
2022/11/14 14:05:39;;;;;;;3.35;1.77;;;12.60;99.90;;;;;;4899979;29;20053;-83
2022/11/14 14:08:21;;;;;;;3.72;1.90;;;12.70;99.90;;;;;;4898817;29;20057;-83
2022/11/14 14:11:17;;;;;;;2.88;1.75;;;12.70;99.90;;;;;;4898757;29;20051;-82
2022/11/14 14:14:04;;;;;;;3.95;1.73;;;12.80;99.90;;;;;;4897216;29;20422;-83
2022/11/14 14:17:01;;;;;;;2.67;1.73;;;12.80;99.90;;;;;;4897336;29;20045;-82
2022/11/14 14:19:46;;;;;;;4.35;1.52;;;12.80;99.90;;;;;;4897329;29;20052;-83
2022/11/14 14:22:16;;;;;;;3.00;1.55;;;12.80;99.90;;;;;;4896666;29;20061;-83
2022/11/14 14:25:21;;;;;;;3.53;1.90;;;12.80;99.90;;;;;;4899195;29;20155;-82
2022/11/14 14:27:48;;;;;;;2.58;1.60;;;12.90;99.90;;;;;;4904106;29;20505;-82
2022/11/14 14:30:18;;;;;;;5.97;1.90;;;12.90;99.90;;;;;;4896200;29;20049;-83
2022/11/14 14:33:14;;;;;;;5.97;2.08;;;12.90;99.90;;;;;;4895079;29;20145;-82
2022/11/14 14:35:52;;;;;;;4.95;1.92;;;13.00;99.90;;;;;;4901110;29;20055;-82
2022/11/14 14:38:24;;;;;;;5.30;1.45;;;13.10;99.90;;;;;;4903848;29;20060;-82
2022/11/14 14:40:54;;;;;;;4.57;1.90;;;13.10;99.90;;;;;;4894486;29;20517;-82
2022/11/14 14:43:42;;;;;;;2.95;1.70;;;13.00;99.90;;;;;;4898915;29;20127;-82
2022/11/14 14:46:09;;;;;;;3.50;1.80;;;13.00;99.90;;;;;;4900195;29;20049;-81
2022/11/14 14:48:40;;;;;;;2.50;1.67;;;13.10;99.90;;;;;;4903283;29;20052;-82
2022/11/14 14:51:12;;;;;;;4.30;1.73;;;13.10;99.90;;;;;;4894197;29;20084;-82
2022/11/14 14:53:50;;;;;;;2.20;1.40;;;13.10;99.90;;;;;;4896015;29;20112;-82
2022/11/14 14:56:25;;;;;;;4.10;1.42;;;13.10;99.90;;;;;;4894423;29;20057;-81
2022/11/14 14:58:52;;;;;;;2.97;1.55;;;13.20;99.90;;;;;;4894519;29;20059;-83
2022/11/14 15:01:27;;;;;;;2.63;1.40;;;13.10;99.90;;;;;;4906676;29;20044;-81
2022/11/14 15:04:04;;;;;;;2.15;1.67;;;13.10;99.90;;;;;;4893419;29;20104;-82
2022/11/14 15:06:35;;;;;;;5.68;1.63;;;13.20;99.90;;;;;;4894366;29;20132;-81
2022/11/14 15:09:14;;;;;;;3.70;1.45;;;13.20;99.90;;;;;;4892823;29;20053;-82
2022/11/14 15:11:43;;;;;;;3.90;1.65;;;13.20;99.90;;;;;;4893014;29;20430;-81
2022/11/14 15:14:14;;;;;;;3.72;1.67;;;13.20;99.90;;;;;;4892857;29;20053;-82
2022/11/14 15:16:43;;;;;;;1.98;0.90;;;13.10;99.90;;;;;;4896614;29;20135;-82
2022/11/14 15:19:14;;;;;;;2.22;1.17;;;13.10;99.90;;;;;;4902354;29;20104;-81
2022/11/14 15:21:42;;;;;;;;;;;13.10;99.90;;;;;;4894668;29;20250;-83
2022/11/14 15:24:17;;;;;;;1.85;1.30;;;13.10;99.90;;;;;;4896423;29;19927;-82
2022/11/14 15:26:48;;;;;;;2.45;1.38;;;13.20;99.90;;;;;;4896330;29;20503;-81
2022/11/14 15:29:19;;;;;;;2.42;1.58;;;13.10;99.90;;;;;;4893428;29;20053;-82
2022/11/14 15:31:57;;;;;;;2.22;1.38;;;13.10;99.90;;;;;;4903052;29;20124;-83
2022/11/14 15:34:33;;;;;;;3.83;1.55;;;13.10;99.90;;;;;;4901574;29;20060;-82
2022/11/14 15:37:09;;;;;;;2.90;1.40;;;13.20;99.90;;;;;;4897707;29;20478;-83
2022/11/14 15:39:36;;;;;;;2.03;1.15;;;13.20;99.90;;;;;;4903116;29;20433;-81
2022/11/14 15:42:22;;;;;;;1.27;0.90;;;13.20;99.90;;;;;;4892340;29;20418;-83
2022/11/14 15:44:49;;;;;;;5.13;0.93;;;13.20;99.90;;;;;;4891894;29;20088;-83
2022/11/14 15:47:19;;;;;;;2.67;1.10;;;13.20;99.90;;;;;;4895225;29;20052;-82
2022/11/14 15:50:03;;;;;;;1.55;1.05;;;13.20;99.90;;;;;;4893698;29;20084;-81
2022/11/14 15:52:35;;;;;;;3.80;1.40;;;13.20;99.90;;;;;;4910470;29;20058;-81
2022/11/14 15:55:02;;;;;;;2.55;1.10;;;13.30;99.90;;;;;;4895002;29;20063;-81
2022/11/14 15:57:31;;;;;;;2.20;1.05;;;13.30;99.90;;;;;;4894832;29;20128;-83
2022/11/14 15:59:58;;;;;;;1.63;1.02;;;13.40;99.90;;;;;;4892281;29;20049;-82
2022/11/14 16:02:28;;;;;;;6.00;1.40;;;13.30;99.90;;;;;;4894364;29;20053;-81
2022/11/14 16:04:56;;;;;;;1.33;1.00;;;13.30;99.90;;;;;;4903555;29;20071;-81
2022/11/14 16:07:23;;;;;;;3.92;1.25;;;13.30;99.90;;;;;;4892374;29;20054;-81
2022/11/14 16:09:50;;;;;;;1.75;1.17;;;13.30;99.90;;;;;;4901219;29;20064;-83
2022/11/14 16:12:17;;;;;;;2.53;1.40;;;13.30;99.90;;;;;;4895568;29;20109;-81
2022/11/14 16:14:43;;;;;;;1.63;1.30;;;13.30;99.90;;;;;;4894572;29;20075;-82
2022/11/14 16:17:15;;;;;;;2.75;1.13;;;13.30;99.90;;;;;;4892645;29;20052;-81
2022/11/14 16:19:43;;;;;;;3.38;1.20;;;13.20;99.90;;;;;;4896716;29;20139;-82
2022/11/14 16:22:16;;;;;;;1.90;1.08;;;13.20;99.90;;;;;;4896406;29;20479;-82
2022/11/14 16:24:43;;;;;;;3.10;1.40;;;13.20;99.90;;;;;;4895990;29;20052;-83
2022/11/14 16:27:10;;;;;;;2.40;1.13;;;13.30;99.90;;;;;;4899544;29;20049;-82
2022/11/14 16:29:36;;;;;;;4.65;1.40;;;13.30;99.90;;;;;;4896458;29;20143;-82
2022/11/14 16:32:03;;;;;;;1.83;1.00;;;13.40;99.90;;;;;;4894983;29;20088;-83
2022/11/14 16:34:30;;;;;;;1.83;1.13;;;13.40;99.90;;;;;;4894629;29;20108;-82
2022/11/14 16:36:59;;;;;;;2.65;1.48;;;13.40;99.90;;;;;;4893674;29;20152;-83
2022/11/14 16:39:26;;;;;;;4.00;1.55;;;13.40;99.90;;;;;;4895271;29;20143;-81
2022/11/14 16:42:00;;;;;;;1.73;1.30;;;13.50;99.90;;;;;;4894138;29;20049;-82
2022/11/14 16:44:27;;;;;;;2.00;1.50;;;13.50;99.90;;;;;;4903575;29;20044;-81
2022/11/14 16:46:53;;;;;;;1.25;1.15;;;13.60;99.90;;;;;;4894701;29;20049;-82
2022/11/14 16:49:20;;;;;;;3.85;1.40;;;13.60;99.90;;;;;;4893246;29;20049;-81
2022/11/14 16:51:49;;;;;;;4.80;1.30;;;13.60;99.90;;;;;;4893263;29;20052;-81
2022/11/14 16:54:18;;;;;;;2.30;1.73;;;13.60;99.90;;;;;;4894026;29;20059;-82
2022/11/14 16:56:45;;;;;;;2.35;1.30;;;13.70;99.90;;;;;;4890475;29;20052;-81
2022/11/14 16:59:12;;;;;;;2.13;1.65;;;13.70;99.90;;;;;;4902305;29;20056;-81
2022/11/14 17:01:39;;;;;;;2.35;1.73;;;13.70;99.90;;;;;;4904228;29;20053;-81
2022/11/14 17:04:06;;;;;;;4.30;1.58;;;13.70;99.90;;;;;;4891113;29;20076;-81
2022/11/14 17:06:32;;;;;;;5.05;2.67;;;13.70;99.90;;;;;;4893680;29;20049;-82
2022/11/14 17:08:59;;;;;;;4.50;1.95;;;13.70;99.90;;;;;;4893468;29;20072;-81
2022/11/14 17:11:27;;;;;;;2.45;1.23;;;13.70;99.90;;;;;;4895970;29;20060;-81
2022/11/14 17:13:54;;;;;;;6.82;2.17;;;13.70;99.90;;;;;;4892939;29;20048;-81
2022/11/14 17:16:21;;;;;;;4.25;2.17;;;13.70;99.90;;;;;;4893841;29;20070;-82
2022/11/14 17:18:53;;;;;;;5.25;1.65;;;13.70;99.90;;;;;;4895343;29;20053;-81
2022/11/14 17:21:21;;;;;;;3.33;1.55;;;13.70;99.90;;;;;;4894563;29;20136;-83
2022/11/14 17:23:56;;;;;;;6.20;2.78;;;13.70;99.90;;;;;;4893565;29;20059;-83
2022/11/14 17:26:23;;;;;;;4.07;2.35;;;13.70;99.90;;;;;;4899011;29;20113;-83
2022/11/14 17:28:49;;;;;;;5.22;1.98;;;13.60;99.90;;;;;;4891035;29;20053;-83
2022/11/14 17:31:16;;;;;;;5.93;2.00;;;13.70;99.90;;;;;;4885315;29;20053;-83
2022/11/14 17:33:48;;;;;;;3.55;1.65;;;13.70;99.90;;;;;;4896561;29;20044;-82
2022/11/14 17:36:15;;;;;;;2.70;1.10;;;13.70;99.90;;;;;;4896873;29;20057;-80
2022/11/14 17:38:41;;;;;;;4.05;1.20;;;13.60;99.90;;;;;;4885954;29;20053;-81
2022/11/14 17:41:08;;;;;;;2.70;1.20;;;13.60;99.90;;;;;;4885004;29;20056;-82
2022/11/14 17:43:35;;;;;;;1.55;1.10;;;13.50;99.90;;;;;;4887882;29;20055;-81
2022/11/14 17:46:05;;;;;;;;;;;13.60;99.90;;;;;;4888727;29;20090;-82
2022/11/14 17:48:41;;;;;;;6.68;1.83;;;13.60;99.90;;;;;;4888013;29;20275;-80
2022/11/14 17:51:11;;;;;;;4.82;1.95;;;13.60;99.90;;;;;;4895357;29;20052;-83
2022/11/14 17:53:38;;;;;;;1.95;1.50;;;13.60;99.90;;;;;;4902233;29;20149;-83
2022/11/14 17:56:06;;;;;;;3.95;1.25;;;13.60;99.90;;;;;;4893452;29;20533;-84
2022/11/14 17:58:33;;;;;;;4.00;1.52;;;13.60;99.90;;;;;;4896411;29;20056;-82
2022/11/14 18:01:00;;;;;;;2.65;1.50;;;13.60;99.90;;;;;;4895386;29;20049;-83
2022/11/14 18:03:27;;;;;;;3.20;1.40;;;13.60;99.90;;;;;;4892049;29;20259;-83
2022/11/14 18:06:04;;;;;;;3.70;1.60;;;13.60;99.90;;;;;;4898373;29;20048;-82
2022/11/14 18:08:33;;;;;;;3.90;1.52;;;13.60;99.90;;;;;;4895175;29;20073;-83
2022/11/14 18:11:01;;;;;;;1.48;1.10;;;13.60;99.90;;;;;;4895635;29;20196;-83
2022/11/14 18:13:27;;;;;;;2.08;1.33;;;13.50;99.90;;;;;;4903052;29;20052;-83
2022/11/14 18:15:59;;;;;;;2.17;1.25;;;13.50;99.90;;;;;;4893078;29;20525;-82
2022/11/14 18:18:25;;;;;;;3.92;1.30;;;13.50;99.90;;;;;;4903945;29;20066;-83
2022/11/14 18:20:52;;;;;;;3.88;1.50;;;13.40;99.90;;;;;;4893737;29;20055;-82
2022/11/14 18:23:18;;;;;;;4.25;1.38;;;13.40;99.90;;;;;;4903116;29;20044;-82
2022/11/14 18:25:45;;;;;;;3.45;1.58;;;13.40;99.90;;;;;;4898141;29;20057;-81
2022/11/14 18:28:12;;;;;;;4.00;1.60;;;13.40;99.90;;;;;;4897731;29;20068;-82
2022/11/14 18:30:39;;;;;;;3.53;1.65;;;13.30;99.90;;;;;;4897659;29;20048;-81
2022/11/14 18:33:08;;;;;;;5.45;1.20;;;13.30;99.90;;;;;;4899358;29;20056;-82
2022/11/14 18:35:35;;;;;;;3.40;1.10;;;13.30;99.90;;;;;;4897617;29;20072;-82
2022/11/14 18:38:01;;;;;;;2.63;1.08;;;13.30;99.90;;;;;;4903358;29;20051;-81
2022/11/14 18:40:28;;;;;;;2.88;1.40;;;13.30;99.90;;;;;;4902046;29;20049;-83
2022/11/14 18:42:55;;;;;;;3.28;1.00;;;13.30;99.90;;;;;;4901710;29;20054;-82
2022/11/14 18:45:21;;;;;;;1.88;1.20;;;13.30;99.90;;;;;;4895527;29;20048;-83
2022/11/14 18:47:48;;;;;;;2.70;1.00;;;13.30;99.90;;;;;;4900201;29;20620;-81
2022/11/14 18:50:15;;;;;;;1.83;1.30;;;13.40;99.90;;;;;;4897794;29;20481;-82
2022/11/14 18:52:42;;;;;;;3.10;1.30;;;13.40;99.90;;;;;;4901555;29;20424;-81
2022/11/14 18:55:08;;;;;;;5.50;1.50;;;13.30;99.90;;;;;;4894586;29;20132;-82
2022/11/14 18:57:35;;;;;;;3.53;1.27;;;13.30;99.90;;;;;;4903204;29;20080;-80
2022/11/14 19:00:04;;;;;;;2.45;1.13;;;13.20;99.90;;;;;;4901125;29;20092;-81
2022/11/14 19:02:30;;;;;;;2.38;1.20;;;13.20;99.90;;;;;;4897762;29;20041;-83
2022/11/14 19:04:57;;;;;;;3.45;1.10;;;13.20;99.90;;;;;;4898448;29;20076;-81
2022/11/14 19:07:24;;;;;;;3.30;1.38;;;13.20;99.90;;;;;;4902392;29;20490;-81
2022/11/14 19:09:51;;;;;;;4.70;1.80;;;13.10;99.90;;;;;;4894756;29;20068;-79
2022/11/14 19:12:20;;;;;;;2.55;1.90;;;13.10;99.90;;;;;;4896301;29;20053;-81
2022/11/14 19:14:49;;;;;;;3.97;1.80;;;13.10;99.90;;;;;;4896094;29;20079;-82
2022/11/14 19:17:21;;;;;;;1.73;1.10;;;13.00;99.90;;;;;;4893198;29;20084;-80
2022/11/14 19:19:49;;;;;;;3.50;1.70;;;13.00;99.90;;;;;;4892431;29;20049;-81
2022/11/14 19:22:16;;;;;;;3.88;1.70;;;12.90;99.90;;;;;;4901586;29;20058;-81
2022/11/14 19:24:45;;;;;;;4.03;1.80;;;12.90;99.90;;;;;;4904413;29;20040;-81
2022/11/14 19:27:13;;;;;;;3.93;1.67;;;12.80;99.90;;;;;;4898769;29;20048;-82
2022/11/14 19:29:39;;;;;;;4.97;2.17;;;12.80;99.90;;;;;;4901826;29;20072;-80
2022/11/14 19:32:07;;;;;;;3.95;2.63;;;12.80;99.90;;;;;;4900124;29;20100;-81
2022/11/14 19:34:33;;;;;;;6.80;3.55;;;12.70;99.90;;;;;;4900724;29;20053;-81
2022/11/14 19:37:00;;;;;;;8.45;4.90;;;12.70;99.90;;;;;;4898410;29;20135;-81
2022/11/14 19:39:27;;;;;;;6.28;3.03;;;12.60;99.90;;;;;;4895958;29;20088;-79
2022/11/14 19:41:54;;;;;;;7.13;3.05;;;12.60;99.90;;;;;;4894707;29;20112;-81
2022/11/14 19:44:21;;;;;;;5.38;3.20;;;12.50;99.90;;;;;;4906231;29;20063;-80
2022/11/14 19:46:47;;;;;;;6.22;3.05;;;12.50;99.90;;;;;;4897310;29;20422;-81
2022/11/14 19:49:14;;;;;;;5.60;2.88;;;12.50;99.90;;;;;;4905811;29;20135;-82
2022/11/14 19:51:41;;;;;;;5.75;3.28;;;12.50;99.90;;;;;;4894474;29;20048;-78
